createdAt,value
2022-11-22T00:02:47.896Z,5.1
2022-11-22T00:04:51.704Z,5
2022-11-22T00:06:55.590Z,5.1
2022-11-22T00:08:59.381Z,5
2022-11-22T00:11:03.287Z,5.1
2022-11-22T00:13:07.188Z,5.1
2022-11-22T00:17:19.369Z,5.1
2022-11-22T00:19:23.152Z,5
2022-11-22T00:21:27.021Z,5.1
2022-11-22T00:22:30.487Z,5
2022-11-22T00:24:34.230Z,5.1
2022-11-22T00:26:38.141Z,5.1
2022-11-22T00:30:48.537Z,5
2022-11-22T00:34:56.134Z,5.1
2022-11-22T00:37:00.024Z,5
2022-11-22T00:39:03.904Z,5.1
2022-11-22T00:41:07.813Z,5.2
2022-11-22T00:43:11.706Z,5.1
2022-11-22T00:45:18.291Z,5.2
2022-11-22T00:47:22.092Z,5.2
2022-11-22T00:49:25.910Z,5.1
2022-11-22T00:51:29.769Z,5.2
2022-11-22T00:53:33.586Z,5.2
2022-11-22T00:57:41.420Z,5.2
2022-11-22T00:59:48.112Z,5.3
2022-11-22T01:01:52.026Z,5.1
2022-11-22T01:03:55.779Z,5.3
2022-11-22T01:05:59.621Z,5.2
2022-11-22T01:08:03.520Z,5.2
2022-11-22T01:10:07.406Z,5.2
2022-11-22T01:12:11.201Z,5.3
2022-11-22T01:14:17.930Z,5.3
2022-11-22T01:16:21.850Z,5.2
2022-11-22T01:18:25.722Z,5.2
2022-11-22T01:19:29.502Z,5.3
2022-11-22T01:21:32.943Z,5.3
2022-11-22T01:23:36.851Z,5.3
2022-11-22T01:29:51.237Z,5.4
2022-11-22T01:31:55.120Z,5.5
2022-11-22T01:36:02.952Z,5.5
2022-11-22T01:38:06.749Z,5.4
2022-11-22T01:46:25.163Z,5.5
2022-11-22T01:48:29.058Z,5.5
2022-11-22T01:50:32.981Z,5.6
2022-11-22T01:52:36.793Z,5.5
2022-11-22T01:54:40.713Z,5.6
2022-11-22T01:56:47.522Z,5.6
2022-11-22T01:58:51.336Z,5.5
2022-11-22T02:00:55.284Z,5.5
2022-11-22T02:02:59.053Z,5.6
2022-11-22T02:05:02.976Z,5.6
2022-11-22T02:07:06.827Z,5.6
2022-11-22T02:09:10.682Z,5.6
2022-11-22T02:11:17.482Z,5.6
2022-11-22T02:13:21.400Z,5.5
2022-11-22T02:15:25.225Z,5.6
2022-11-22T02:16:28.617Z,5.6
2022-11-22T02:18:32.433Z,5.6
2022-11-22T02:20:36.330Z,5.6
2022-11-22T02:22:40.139Z,5.6
2022-11-22T02:24:46.986Z,5.6
2022-11-22T02:33:02.615Z,5.6
2022-11-22T02:35:06.544Z,5.6
2022-11-22T02:37:10.492Z,5.5
2022-11-22T02:39:17.188Z,5.5
2022-11-22T02:41:21.105Z,5.5
2022-11-22T02:49:36.580Z,5.5
2022-11-22T02:51:40.491Z,5.5
2022-11-22T02:53:47.298Z,5.4
2022-11-22T02:55:51.108Z,5.5
2022-11-22T02:57:54.922Z,5.4
2022-11-22T02:59:58.811Z,5.4
2022-11-22T03:02:03.568Z,5.4
2022-11-22T03:04:06.529Z,5.3
2022-11-22T03:06:10.426Z,5.4
2022-11-22T03:08:17.042Z,5.6
2022-11-22T03:12:24.747Z,5.6
2022-11-22T03:14:48.633Z,5.5
2022-11-22T03:16:52.419Z,5.5
2022-11-22T03:18:56.221Z,5.6
2022-11-22T03:21:02.953Z,5.5
2022-11-22T03:23:06.742Z,5.5
2022-11-22T03:27:14.430Z,5.6
2022-11-22T03:29:18.224Z,5.5
2022-11-22T03:31:22.034Z,5.6
2022-11-22T03:33:25.925Z,5.6
2022-11-22T03:35:32.632Z,5.5
2022-11-22T03:37:36.448Z,5.6
2022-11-22T03:39:40.342Z,5.6
2022-11-22T03:41:44.122Z,5.6
2022-11-22T03:43:48.041Z,5.6
2022-11-22T03:45:51.830Z,5.5
2022-11-22T03:50:02.572Z,5.5
2022-11-22T03:52:06.435Z,5.4
2022-11-22T03:54:10.265Z,5.5
2022-11-22T03:56:14.130Z,5.4
2022-11-22T03:58:18.047Z,5.3
2022-11-22T04:00:21.927Z,5.4
2022-11-22T04:02:25.834Z,5.4
2022-11-22T04:04:32.643Z,5.3
2022-11-22T04:06:36.505Z,5.4
2022-11-22T04:08:40.416Z,5.3
2022-11-22T04:09:43.799Z,5.5
2022-11-22T04:11:47.698Z,5.5
2022-11-22T04:13:51.585Z,5.4
2022-11-22T04:15:55.383Z,5.4
2022-11-22T04:18:01.984Z,5.3
2022-11-22T04:20:05.795Z,5.3
2022-11-22T04:22:09.664Z,5.4
2022-11-22T04:24:13.551Z,5.2
2022-11-22T04:26:17.456Z,5.3
2022-11-22T04:28:24.507Z,5.1
2022-11-22T04:30:25.287Z,5.1
2022-11-22T04:32:32.041Z,5.2
2022-11-22T04:34:35.861Z,5.1
2022-11-22T04:36:39.623Z,5.1
2022-11-22T04:38:43.420Z,5
2022-11-22T04:40:47.238Z,5.1
2022-11-22T04:44:54.888Z,5
2022-11-22T04:47:01.688Z,5
2022-11-22T04:49:05.474Z,4.9
2022-11-22T04:51:09.340Z,4.9
2022-11-22T04:53:13.227Z,4.9
2022-11-22T04:55:17.114Z,4.8
2022-11-22T04:59:24.861Z,4.7
2022-11-22T05:01:31.794Z,4.8
2022-11-22T05:06:42.724Z,4.8
2022-11-22T05:08:46.617Z,4.7
2022-11-22T05:10:50.497Z,4.8
2022-11-22T05:12:54.336Z,4.8
2022-11-22T05:15:01.132Z,4.8
2022-11-22T05:17:05.009Z,4.8
2022-11-22T05:19:08.895Z,4.8
2022-11-22T05:21:12.768Z,4.7
2022-11-22T05:23:16.571Z,4.7
2022-11-22T05:25:25.270Z,4.6
2022-11-22T05:27:24.192Z,4.7
2022-11-22T05:29:30.949Z,4.6
2022-11-22T05:31:34.631Z,4.6
2022-11-22T05:33:38.415Z,4.5
2022-11-22T05:35:42.310Z,4.6
2022-11-22T05:37:46.065Z,4.6
2022-11-22T05:39:49.939Z,4.5
2022-11-22T05:41:53.807Z,4.5
2022-11-22T05:44:00.589Z,4.5
2022-11-22T05:46:04.467Z,4.5
2022-11-22T05:48:08.251Z,4.5
2022-11-22T05:52:15.949Z,4.3
2022-11-22T05:54:19.809Z,4.3
2022-11-22T05:58:30.364Z,4.2
2022-11-22T06:00:34.257Z,4.2
2022-11-22T06:02:38.049Z,4.2
2022-11-22T06:05:45.117Z,4.2
2022-11-22T06:07:49.022Z,4.3
2022-11-22T06:09:52.849Z,4.3
2022-11-22T06:16:08.819Z,4.2
2022-11-22T06:22:20.391Z,4.1
2022-11-22T06:28:34.861Z,4
2022-11-22T06:30:38.606Z,4
2022-11-22T06:32:42.475Z,4.1
2022-11-22T06:34:46.324Z,4.1
2022-11-22T06:36:50.172Z,4.1
2022-11-22T06:38:54.028Z,4.2
2022-11-22T06:45:08.289Z,4.1
2022-11-22T06:47:12.178Z,4.1
2022-11-22T06:49:16.005Z,4
2022-11-22T06:51:19.785Z,4.1
2022-11-22T06:53:45.607Z,4.1
2022-11-22T06:55:49.492Z,4
2022-11-22T06:57:34.249Z,4.1
2022-11-22T06:59:38.087Z,4
2022-11-22T07:02:06.440Z,4.1
2022-11-22T07:04:05.863Z,4
2022-11-22T07:06:09.580Z,4.1
2022-11-22T07:10:20.136Z,4.1
2022-11-22T07:14:27.751Z,4
2022-11-22T07:20:39.202Z,4
2022-11-22T07:24:49.842Z,4
2022-11-22T07:28:57.709Z,4.1
2022-11-22T07:35:08.998Z,4.1
2022-11-22T07:39:19.528Z,4.1
2022-11-22T07:41:23.276Z,4.2
2022-11-22T07:45:30.892Z,4.2
2022-11-22T07:49:38.488Z,4.2
2022-11-22T07:53:49.123Z,4.2
2022-11-22T07:55:52.934Z,4.2
2022-11-22T07:56:56.273Z,4.2
2022-11-22T07:59:00.040Z,4.2
2022-11-22T08:01:03.977Z,4.2
2022-11-22T08:03:07.790Z,4.3
2022-11-22T08:09:22.326Z,4.3
2022-11-22T08:11:26.163Z,4.4
2022-11-22T08:13:30.022Z,4.3
2022-11-22T08:15:33.932Z,4.4
2022-11-22T08:17:37.791Z,4.4
2022-11-22T08:19:44.571Z,4.4
2022-11-22T08:21:48.443Z,4.4
2022-11-22T08:23:52.328Z,4.4
2022-11-22T08:30:03.882Z,4.5
2022-11-22T08:32:07.726Z,4.6
2022-11-22T08:34:14.334Z,4.7
2022-11-22T08:36:18.212Z,4.8
2022-11-22T08:38:22.083Z,5
2022-11-22T08:40:25.871Z,5.1
2022-11-22T08:42:29.728Z,5.2
2022-11-22T08:44:33.568Z,5.1
2022-11-22T08:46:37.436Z,5.1
2022-11-22T08:48:44.065Z,4.9
2022-11-22T08:50:47.924Z,4.8
2022-11-22T08:52:51.948Z,4.8
2022-11-22T08:55:59.146Z,4.8
2022-11-22T08:58:02.963Z,4.9
2022-11-22T09:00:06.790Z,4.9
2022-11-22T09:02:13.469Z,4.8
2022-11-22T09:04:17.226Z,4.7
2022-11-22T09:08:24.930Z,4.8
2022-11-22T09:10:28.805Z,4.8
2022-11-22T09:12:32.588Z,4.9
2022-11-22T09:14:36.374Z,4.9
2022-11-22T09:16:42.989Z,5
2022-11-22T09:18:46.882Z,5
2022-11-22T09:20:50.666Z,5
2022-11-22T09:24:58.410Z,5.1
2022-11-22T09:27:02.176Z,5.3
2022-11-22T09:35:20.498Z,5.5
2022-11-22T09:39:28.310Z,5.4
2022-11-22T09:41:31.966Z,5.4
2022-11-22T09:49:50.804Z,5.4
2022-11-22T09:50:54.204Z,5.5
2022-11-22T09:52:58.125Z,5.5
2022-11-22T09:55:02.004Z,5.5
2022-11-22T09:57:05.872Z,5.5
2022-11-22T09:59:12.701Z,5.6
2022-11-22T10:01:16.713Z,5.6
2022-11-22T10:03:20.424Z,5.6
2022-11-22T10:05:24.263Z,5.5
2022-11-22T10:07:28.113Z,5.5
2022-11-22T10:09:32.392Z,5.6
2022-11-22T10:11:36.760Z,5.5
2022-11-22T10:13:42.552Z,5.5
2022-11-22T10:15:46.396Z,5.5
2022-11-22T10:17:50.302Z,5.6
2022-11-22T10:19:54.137Z,5.7
2022-11-22T10:21:58.088Z,5.7
2022-11-22T10:24:01.979Z,5.7
2022-11-22T10:26:05.897Z,5.7
2022-11-22T10:28:12.658Z,5.8
2022-11-22T10:30:16.583Z,5.8
2022-11-22T10:32:20.496Z,5.7
2022-11-22T10:34:24.305Z,5.7
2022-11-22T10:36:28.124Z,5.7
2022-11-22T10:38:31.958Z,5.7
2022-11-22T10:40:35.787Z,5.7
2022-11-22T10:42:42.613Z,5.8
2022-11-22T10:44:46.361Z,5.9
2022-11-22T10:46:55.208Z,6
2022-11-22T10:49:19.840Z,5.8
2022-11-22T10:51:23.746Z,5.8
2022-11-22T10:53:27.608Z,5.9
2022-11-22T10:55:34.340Z,5.9
2022-11-22T10:57:38.209Z,5.9
2022-11-22T10:59:42.036Z,5.9
2022-11-22T11:01:45.945Z,5.9
2022-11-22T11:03:49.875Z,5.9
2022-11-22T11:06:21.533Z,5.9
2022-11-22T11:08:15.307Z,5.9
2022-11-22T11:10:14.705Z,5.8
2022-11-22T11:12:08.044Z,5.8
2022-11-22T11:14:11.873Z,5.8
2022-11-22T11:16:15.720Z,5.8
2022-11-22T11:18:19.641Z,5.8
2022-11-22T11:20:23.616Z,5.9
2022-11-22T11:22:58.597Z,5.9
2022-11-22T11:24:34.288Z,5.9
2022-11-22T11:26:38.107Z,6
2022-11-22T11:34:53.532Z,6
2022-11-22T11:36:57.363Z,5.9
2022-11-22T11:39:04.003Z,6
2022-11-22T11:41:07.835Z,6
2022-11-22T11:43:11.679Z,6
2022-11-22T11:44:14.983Z,6.1
2022-11-22T11:46:18.837Z,6
2022-11-22T11:52:33.147Z,6.1
2022-11-22T11:56:40.819Z,6.4
2022-11-22T11:58:44.756Z,6.4
2022-11-22T12:00:48.597Z,6.4
2022-11-22T12:02:52.548Z,6.3
2022-11-22T12:04:56.289Z,6.4
2022-11-22T12:07:03.515Z,6.5
2022-11-22T12:09:06.850Z,6.5
2022-11-22T12:11:12.222Z,6.4
2022-11-22T12:13:16.129Z,6.4
2022-11-22T12:15:19.990Z,6.3
2022-11-22T12:17:23.820Z,6.4
2022-11-22T12:19:27.654Z,6.3
2022-11-22T12:21:34.427Z,6.3
2022-11-22T12:25:42.144Z,6.3
2022-11-22T12:29:49.921Z,6.3
2022-11-22T12:36:04.274Z,6.5
2022-11-22T12:38:08.119Z,6.4
2022-11-22T12:40:12.035Z,6.4
2022-11-22T12:41:15.278Z,6.4
2022-11-22T12:43:19.151Z,6.4
2022-11-22T12:45:23.014Z,6.4
2022-11-22T12:47:26.868Z,6.4
2022-11-22T12:49:33.619Z,6.5
2022-11-22T12:51:37.493Z,6.4
2022-11-22T12:53:41.313Z,6.4
2022-11-22T12:55:45.165Z,6.6
2022-11-22T12:57:49.029Z,6.6
2022-11-22T12:59:52.984Z,6.7
2022-11-22T13:01:56.843Z,6.6
2022-11-22T13:04:03.509Z,6.9
2022-11-22T13:06:07.347Z,6.7
2022-11-22T13:08:11.190Z,6.6
2022-11-22T13:10:15.032Z,6.6
2022-11-22T13:12:18.887Z,6.5
2022-11-22T13:14:22.831Z,6.5
2022-11-22T13:16:26.668Z,6.4
2022-11-22T13:18:33.311Z,6.4
2022-11-22T13:20:42.685Z,6.3
2022-11-22T13:22:41.002Z,6.3
2022-11-22T13:24:44.837Z,6.4
2022-11-22T13:26:48.678Z,6.4
2022-11-22T13:28:52.525Z,6.4
2022-11-22T13:30:56.378Z,6.4
2022-11-22T13:33:03.001Z,6.4
2022-11-22T13:35:06.838Z,6.4
2022-11-22T13:37:10.816Z,6.4
2022-11-22T13:38:14.008Z,6.4
2022-11-22T13:42:21.695Z,6.4
2022-11-22T13:44:25.553Z,6.5
2022-11-22T13:46:32.200Z,6.5
2022-11-22T13:48:36.043Z,6.5
2022-11-22T13:50:39.845Z,6.4
2022-11-22T13:52:43.711Z,6.4
2022-11-22T13:54:47.701Z,6.5
2022-11-22T13:56:51.392Z,6.6
2022-11-22T13:58:55.200Z,6.6
2022-11-22T14:01:01.937Z,6.6
2022-11-22T14:03:05.694Z,6.6
2022-11-22T14:05:09.552Z,6.5
2022-11-22T14:07:13.453Z,6.6
2022-11-22T14:09:17.255Z,6.7
2022-11-22T14:11:21.089Z,6.6
2022-11-22T14:13:24.922Z,6.6
2022-11-22T14:15:31.592Z,6.6
2022-11-22T14:17:41.346Z,6.7
2022-11-22T14:19:39.291Z,6.6
2022-11-22T14:21:43.211Z,6.7
2022-11-22T14:23:46.996Z,6.7
2022-11-22T14:25:50.821Z,6.6
2022-11-22T14:27:54.665Z,6.7
2022-11-22T14:30:01.353Z,6.7
2022-11-22T14:32:05.199Z,6.7
2022-11-22T14:38:42.447Z,6.6
2022-11-22T14:40:46.321Z,6.6
2022-11-22T14:42:52.980Z,6.6
2022-11-22T14:44:56.822Z,6.6
2022-11-22T14:47:00.660Z,6.6
2022-11-22T14:49:04.522Z,6.6
2022-11-22T14:51:08.371Z,6.6
2022-11-22T14:53:12.241Z,6.6
2022-11-22T14:55:16.058Z,6.7
2022-11-22T14:57:22.716Z,6.8
2022-11-22T14:59:26.568Z,6.8
2022-11-22T15:01:30.426Z,6.9
2022-11-22T15:09:11.524Z,7
2022-11-22T15:11:52.449Z,7.1
2022-11-22T15:58:28.841Z,7.4
2022-11-22T16:00:32.765Z,7.4
2022-11-22T16:02:36.517Z,7.4
2022-11-22T16:04:40.372Z,7.4
2022-11-22T16:06:44.224Z,7.4
2022-11-22T16:08:50.902Z,7.4
2022-11-22T16:10:54.741Z,7.4
2022-11-22T16:12:58.592Z,7.4
2022-11-22T16:15:02.478Z,7.4
2022-11-22T16:17:06.291Z,7.4
2022-11-22T16:19:10.142Z,7.4
2022-11-22T16:21:13.990Z,7.4
2022-11-22T16:23:20.667Z,7.4
2022-11-22T16:25:24.548Z,7.3
2022-11-22T16:27:28.397Z,7.3
2022-11-22T16:28:31.716Z,7.2
2022-11-22T16:30:35.567Z,7.2
2022-11-22T16:32:39.407Z,7.2
2022-11-22T16:34:43.285Z,7.2
2022-11-22T16:36:49.960Z,7
2022-11-22T16:38:53.831Z,7
2022-11-22T16:40:57.705Z,6.9
2022-11-22T16:43:05.432Z,6.9
2022-11-22T16:45:05.375Z,6.8
2022-11-22T16:47:09.206Z,6.8
2022-11-22T16:49:13.081Z,6.8
2022-11-22T16:51:19.755Z,6.8
2022-11-22T16:53:23.578Z,6.8
2022-11-22T16:55:27.436Z,6.8
2022-11-22T16:57:31.273Z,6.8
2022-11-22T16:59:35.158Z,6.8
2022-11-22T17:01:38.992Z,6.8
2022-11-22T17:03:42.836Z,6.8
2022-11-22T17:05:49.486Z,6.8
2022-11-22T17:09:57.170Z,6.8
2022-11-22T17:12:01.034Z,6.8
2022-11-22T17:14:04.975Z,6.8
2022-11-22T17:16:08.821Z,6.8
2022-11-22T17:18:12.675Z,6.8
2022-11-22T17:22:23.147Z,6.9
2022-11-22T17:24:27.000Z,6.9
2022-11-22T17:25:30.381Z,6.9
2022-11-22T17:27:34.173Z,6.9
2022-11-22T17:29:50.995Z,6.9
2022-11-22T17:31:41.855Z,6.7
2022-11-22T17:33:48.516Z,6.5
2022-11-22T17:35:52.390Z,6.5
2022-11-22T17:37:56.227Z,6.5
2022-11-22T17:40:00.058Z,6.5
2022-11-22T17:42:03.909Z,6.5
2022-11-22T17:44:07.735Z,6.5
2022-11-22T17:46:11.566Z,6.5
2022-11-22T17:48:18.247Z,6.5
2022-11-22T17:50:22.064Z,6.5
2022-11-22T17:52:25.907Z,6.6
2022-11-22T17:54:29.730Z,6.6
2022-11-22T17:56:33.553Z,6.6
2022-11-22T17:58:37.395Z,6.6
2022-11-22T18:04:51.705Z,6.7
2022-11-22T18:11:04.673Z,6.6
2022-11-22T18:13:21.171Z,6.7
2022-11-22T18:15:12.320Z,6.6
2022-11-22T18:17:18.999Z,6.6
2022-11-22T18:19:22.822Z,6.7
2022-11-22T18:21:26.637Z,6.7
2022-11-22T18:23:56.358Z,6.8
2022-11-22T18:28:04.040Z,6.8
2022-11-22T18:32:14.502Z,6.8
2022-11-22T18:46:44.227Z,6.9
2022-11-22T18:48:48.069Z,6.9
2022-11-22T18:50:51.903Z,6.9
2022-11-22T18:52:55.747Z,7
2022-11-22T18:54:59.569Z,7
2022-11-22T18:57:03.403Z,6.9
2022-11-22T18:59:10.095Z,7
2022-11-22T19:01:13.982Z,7
2022-11-22T19:03:17.717Z,7
2022-11-22T19:05:24.477Z,7
2022-11-22T19:07:25.435Z,7.1
2022-11-22T19:09:29.206Z,7.1
2022-11-22T19:11:33.030Z,7.1
2022-11-22T19:13:39.681Z,7.1
2022-11-22T19:15:43.535Z,7.1
2022-11-22T19:17:47.397Z,7.1
2022-11-22T19:18:50.796Z,7.2
2022-11-22T19:20:55.566Z,7.2
2022-11-22T19:22:58.466Z,7.2
2022-11-22T19:25:02.340Z,7.2
2022-11-22T19:27:08.928Z,7.2
2022-11-22T19:29:12.804Z,7.2
2022-11-22T19:31:16.617Z,7.2
2022-11-22T19:33:20.570Z,7.2
2022-11-22T19:35:24.375Z,7.2
2022-11-22T19:37:28.220Z,7.3
2022-11-22T19:39:32.519Z,7.2
2022-11-22T19:41:38.814Z,7.2
2022-11-22T19:43:42.648Z,7.2
2022-11-22T19:49:54.168Z,7.1
2022-11-22T19:51:58.091Z,7
2022-11-22T19:58:12.542Z,7
2022-11-22T20:00:16.471Z,7
2022-11-22T20:02:20.302Z,7
2022-11-22T20:04:24.147Z,7
2022-11-22T20:06:28.096Z,7
2022-11-22T20:08:32.043Z,7
2022-11-22T20:10:38.677Z,7
2022-11-22T20:12:42.532Z,7
2022-11-22T20:14:46.333Z,7
2022-11-22T20:15:49.676Z,7
2022-11-22T20:17:53.545Z,7
2022-11-22T20:19:57.348Z,7
2022-11-22T20:24:07.937Z,7.1
2022-11-22T20:26:11.788Z,7.1
2022-11-22T20:28:15.730Z,7.1
2022-11-22T20:32:23.392Z,7
2022-11-22T20:34:27.228Z,7.1
2022-11-22T20:36:31.091Z,7.1
2022-11-22T20:38:37.842Z,7.1
2022-11-22T20:40:41.782Z,7.1
2022-11-22T20:42:45.599Z,7.1
2022-11-22T20:44:49.455Z,7.2
2022-11-22T20:46:53.307Z,7.2
2022-11-22T20:53:07.679Z,7.3
2022-11-22T20:55:11.499Z,7.3
2022-11-22T20:59:19.203Z,7.3
2022-11-22T21:01:23.289Z,7.3
2022-11-22T21:03:26.999Z,7.4
2022-11-22T21:05:30.830Z,7.4
2022-11-22T21:07:37.490Z,7.4
2022-11-22T21:09:41.380Z,7.5
2022-11-22T21:11:45.220Z,7.5
2022-11-22T21:12:48.544Z,7.5
2022-11-22T21:14:53.817Z,7.5
2022-11-22T21:16:56.260Z,7.5
2022-11-22T21:19:00.107Z,7.5
2022-11-22T21:21:06.738Z,7.4
2022-11-22T21:23:10.602Z,7.5
2022-11-22T21:25:14.464Z,7.5
2022-11-22T21:27:18.296Z,7.5
2022-11-22T21:29:22.134Z,7.5
2022-11-22T21:31:26.086Z,7.5
2022-11-22T21:35:36.597Z,7.4
2022-11-22T21:39:44.335Z,7.5
2022-11-22T21:43:52.129Z,7.5
2022-11-22T21:50:11.490Z,7.6
2022-11-22T21:54:14.377Z,7.6
2022-11-22T21:56:18.226Z,7.6
2022-11-22T21:58:22.054Z,7.6
2022-11-22T22:00:25.915Z,7.6
2022-11-22T22:02:29.768Z,7.7
2022-11-22T22:04:36.421Z,7.7
2022-11-22T22:08:44.302Z,7.7
2022-11-22T22:11:07.879Z,7.7
2022-11-22T22:13:11.725Z,7.7
2022-11-22T22:15:15.711Z,7.7
2022-11-22T22:17:22.327Z,7.6
2022-11-22T22:19:26.175Z,7.6
2022-11-22T22:21:30.030Z,7.6
2022-11-22T22:23:33.862Z,7.6
2022-11-22T22:25:37.733Z,7.6
2022-11-22T22:27:41.668Z,7.6
2022-11-22T22:31:52.163Z,7.7
2022-11-22T22:33:56.014Z,7.7
2022-11-22T22:35:59.834Z,7.7
2022-11-22T22:38:03.693Z,7.7
2022-11-22T22:40:07.525Z,7.7
2022-11-22T22:42:11.401Z,7.7
2022-11-22T22:44:15.252Z,7.7
2022-11-22T22:46:21.887Z,7.7
2022-11-22T22:48:25.752Z,7.7
2022-11-22T22:50:29.588Z,7.7
2022-11-22T22:52:33.454Z,7.7
2022-11-22T22:54:37.407Z,7.7
2022-11-22T22:56:41.245Z,7.7
2022-11-22T23:00:51.756Z,7.7
2022-11-22T23:04:59.524Z,7.7
2022-11-22T23:06:02.845Z,7.7
2022-11-22T23:12:14.387Z,7.8
2022-11-22T23:14:21.073Z,7.8
2022-11-22T23:20:32.736Z,7.7
2022-11-22T23:22:36.588Z,7.7
2022-11-22T23:24:40.444Z,7.7
2022-11-22T23:26:44.286Z,7.7
2022-11-22T23:28:51.071Z,7.7
2022-11-22T23:30:55.043Z,7.7
2022-11-22T23:32:58.969Z,7.7
2022-11-22T23:35:02.833Z,7.7
2022-11-22T23:37:06.660Z,7.7
2022-11-22T23:39:10.541Z,7.7
2022-11-22T23:41:14.379Z,7.8
2022-11-22T23:43:21.056Z,7.8
2022-11-22T23:45:24.885Z,7.8
2022-11-22T23:47:28.761Z,7.8
2022-11-22T23:49:32.773Z,7.8
2022-11-22T23:51:36.435Z,7.8
2022-11-22T23:53:40.313Z,7.8
2022-11-22T23:57:50.836Z,7.9
2022-11-22T23:59:54.699Z,7.9
